Time;durP1;ratioP1;P1;durP2;ratioP2;P2;SDS_P1;SDS_P2;PMS_P1;PMS_P2;Temp;Humidity;BMP_temperature;BMP_pressure;BME280_temperature;BME280_humidity;BME280_pressure;Samples;Min_cycle;Max_cycle;Signal;HPM_P1;HPM_P2
2022/07/29 00:01:14;;;;;;;;;;;;;;;;;;5096851;28;19928;-79
2022/07/29 00:03:41;;;;;;;;;;;;;;;;;;5096690;28;19934;-79
2022/07/29 00:06:07;;;;;;;;;;;;;;;;;;5096620;28;19928;-79
2022/07/29 00:08:35;;;;;;;;;;;;;;;;;;5096131;28;20470;-78
2022/07/29 00:11:01;;;;;;;;;;;;;;;;;;5095740;28;20019;-79
2022/07/29 00:13:28;;;;;;;;;;;;;;;;;;5096094;28;19967;-79
2022/07/29 00:15:54;;;;;;;;;;;;;;;;;;5101790;28;19967;-79
2022/07/29 00:18:21;;;;;;;;;;;;;;;;;;5099902;28;19935;-78
2022/07/29 00:20:47;;;;;;;;;;;;;;;;;;5095006;28;20454;-77
2022/07/29 00:23:14;;;;;;;;;;;;;;;;;;5095126;28;20371;-78
2022/07/29 00:25:42;;;;;;;;;;;;;;;;;;5093606;28;20371;-78
2022/07/29 00:28:08;;;;;;;;;;;;;;;;;;5095116;28;20383;-78
2022/07/29 00:30:34;;;;;;;;;;;;;;;;;;5093294;28;19974;-77
2022/07/29 00:33:01;;;;;;;;;;;;;;;;;;5093058;28;19977;-77
2022/07/29 00:35:45;;;;;;;;;;;;;;;;;;5092938;28;19974;-77
2022/07/29 00:38:11;;;;;;;;;;;;;;;;;;5099189;28;20117;-78
2022/07/29 00:40:38;;;;;;;;;;;;;;;;;;5100121;28;19931;-79
2022/07/29 00:43:06;;;;;;;;;;;;;;;;;;5100059;28;20010;-77
2022/07/29 00:45:33;;;;;;;;;;;;;;;;;;5094535;28;20411;-78
2022/07/29 00:47:59;;;;;;;;;;;;;;;;;;5094594;28;19982;-78
2022/07/29 00:50:26;;;;;;;;;;;;;;;;;;5094913;28;19978;-78
2022/07/29 00:52:53;;;;;;;;;;;;;;;;;;5101463;28;19985;-78
2022/07/29 00:55:20;;;;;;;;;;;;;;;;;;5096413;28;20433;-77
2022/07/29 00:57:46;;;;;;;;;;;;;;;;;;5095739;28;20580;-78
2022/07/29 01:00:17;;;;;;;;;;;;;;;;;;5092891;28;19963;-78
2022/07/29 01:02:43;;;;;;;;;;;;;;;;;;5097623;28;19924;-78
2022/07/29 01:05:11;;;;;;;;;;;;;;;;;;5098590;28;20012;-77
2022/07/29 01:07:38;;;;;;;;;;;;;;;;;;5094634;28;20019;-78
2022/07/29 01:10:05;;;;;;;;;;;;;;;;;;5094446;28;19963;-79
2022/07/29 01:12:32;;;;;;;;;;;;;;;;;;5094334;28;20023;-78
2022/07/29 01:14:59;;;;;;;;;;;;;;;;;;5095873;28;20137;-78
2022/07/29 01:17:29;;;;;;;;;;;;;;;;;;5095919;28;20015;-78
2022/07/29 01:19:58;;;;;;;;;;;;;;;;;;5095450;28;20011;-78
2022/07/29 01:22:32;;;;;;;;;;;;;;;;;;5095641;28;19931;-79
2022/07/29 01:25:16;;;;;;;;;;;;;;;;;;5095728;28;19924;-79
2022/07/29 01:27:48;;;;;;;;;;;;;;;;;;5094401;28;19971;-78
2022/07/29 01:30:16;;;;;;;;;;;;;;;;;;5094980;28;20326;-79
2022/07/29 01:32:43;;;;;;;;;;;;;;;;;;5103184;28;19924;-79
2022/07/29 01:35:15;;;;;;;;;;;;;;;;;;5102267;28;19930;-79
2022/07/29 01:37:44;;;;;;;;;;;;;;;;;;5100147;28;19991;-79
2022/07/29 01:40:14;;;;;;;;;;;;;;;;;;5100537;28;19995;-78
2022/07/29 01:42:43;;;;;;;;;;;;;;;;;;5098419;28;20007;-78
2022/07/29 01:45:13;;;;;;;;;;;;;;;;;;5093852;28;19924;-79
2022/07/29 01:47:42;;;;;;;;;;;;;;;;;;5093537;28;20374;-79
2022/07/29 01:50:11;;;;;;;;;;;;;;;;;;5093648;28;20625;-80
2022/07/29 01:52:40;;;;;;;;;;;;;;;;;;5093394;28;20372;-80
2022/07/29 01:55:10;;;;;;;;;;;;;;;;;;5099234;28;20364;-78
2022/07/29 01:57:38;;;;;;;;;;;;;;;;;;5101754;28;20398;-79
2022/07/29 02:00:06;;;;;;;;;;;;;;;;;;5092675;28;19924;-79
2022/07/29 02:02:33;;;;;;;;;;;;;;;;;;5093084;28;19927;-80
2022/07/29 02:05:02;;;;;;;;;;;;;;;;;;5093128;28;20033;-78
2022/07/29 02:07:30;;;;;;;;;;;;;;;;;;5092603;28;20357;-79
2022/07/29 02:09:57;;;;;;;;;;;;;;;;;;5092816;28;19931;-78
2022/07/29 02:12:24;;;;;;;;;;;;;;;;;;5092742;28;19970;-78
2022/07/29 02:14:52;;;;;;;;;;;;;;;;;;5093768;28;20442;-79
2022/07/29 02:17:21;;;;;;;;;;;;;;;;;;5101732;28;19969;-78
2022/07/29 02:19:49;;;;;;;;;;;;;;;;;;5101861;28;19947;-79
2022/07/29 02:22:17;;;;;;;;;;;;;;;;;;5096835;28;20015;-79
2022/07/29 02:24:45;;;;;;;;;;;;;;;;;;5094214;28;20002;-79
2022/07/29 02:27:12;;;;;;;;;;;;;;;;;;5093410;28;20347;-77
2022/07/29 02:29:40;;;;;;;;;;;;;;;;;;5093566;28;20010;-79
2022/07/29 02:32:08;;;;;;;;;;;;;;;;;;5094384;28;19923;-79
2022/07/29 02:34:35;;;;;;;;;;;;;;;;;;5107050;28;19979;-77
2022/07/29 02:37:02;;;;;;;;;;;;;;;;;;5100581;28;20014;-78
2022/07/29 02:39:30;;;;;;;;;;;;;;;;;;5097467;28;19980;-78
2022/07/29 02:42:00;;;;;;;;;;;;;;;;;;5105873;28;19924;-78
2022/07/29 02:44:26;;;;;;;;;;;;;;;;;;5105839;28;19959;-79
2022/07/29 02:46:55;;;;;;;;;;;;;;;;;;5104929;28;19970;-78
2022/07/29 02:49:30;;;;;;;;;;;;;;;;;;5106248;28;19928;-77
2022/07/29 02:51:59;;;;;;;;;;;;;;;;;;5102630;28;19963;-78
2022/07/29 02:54:30;;;;;;;;;;;;;;;;;;5097365;28;19966;-76
2022/07/29 02:56:58;;;;;;;;;;;;;;;;;;5094196;28;20014;-77
2022/07/29 02:59:27;;;;;;;;;;;;;;;;;;5094033;28;20015;-77
2022/07/29 03:01:55;;;;;;;;;;;;;;;;;;5074686;28;19947;-78
2022/07/29 03:04:22;;;;;;;;;;;;;;;;;;5074095;28;19924;-77
2022/07/29 03:06:50;;;;;;;;;;;;;;;;;;5074669;28;20003;-78
2022/07/29 03:09:17;;;;;;;;;;;;;;;;;;5076521;28;20013;-79
2022/07/29 03:11:44;;;;;;;;;;;;;;;;;;5080656;28;19968;-78
2022/07/29 03:14:13;;;;;;;;;;;;;;;;;;5079513;28;19956;-78
2022/07/29 03:16:39;;;;;;;;;;;;;;;;;;5079983;28;20016;-77
2022/07/29 03:19:06;;;;;;;;;;;;;;;;;;5082423;28;19974;-81
2022/07/29 03:21:32;;;;;;;;;;;;;;;;;;5084285;28;19967;-78
2022/07/29 03:23:59;;;;;;;;;;;;;;;;;;5085407;28;19924;-77
2022/07/29 03:26:26;;;;;;;;;;;;;;;;;;5086320;28;19964;-79
2022/07/29 03:28:52;;;;;;;;;;;;;;;;;;5085742;28;19967;-78
2022/07/29 03:31:20;;;;;;;;;;;;;;;;;;5084377;28;19925;-78
2022/07/29 03:33:46;;;;;;;;;;;;;;;;;;5083172;28;19971;-81
2022/07/29 03:36:13;;;;;;;;;;;;;;;;;;5084209;28;19924;-79
2022/07/29 03:38:40;;;;;;;;;;;;;;;;;;5083837;28;19935;-80
2022/07/29 03:41:10;;;;;;;;;;;;;;;;;;5078039;28;20019;-78
2022/07/29 03:43:38;;;;;;;;;;;;;;;;;;5078431;28;19930;-78
2022/07/29 03:46:06;;;;;;;;;;;;;;;;;;5078142;28;20015;-80
2022/07/29 03:48:36;;;;;;;;;;;;;;;;;;5077946;28;19928;-79
2022/07/29 03:51:02;;;;;;;;;;;;;;;;;;5077324;28;20280;-79
2022/07/29 03:53:29;;;;;;;;;;;;;;;;;;5078153;28;19963;-79
2022/07/29 03:55:59;;;;;;;;;;;;;;;;;;5077830;28;20028;-80
2022/07/29 03:58:27;;;;;;;;;;;;;;;;;;5077232;28;20011;-80
2022/07/29 04:00:54;;;;;;;;;;;;;;;;;;5077042;28;19924;-78
2022/07/29 04:03:21;;;;;;;;;;;;;;;;;;5077467;28;20033;-79
2022/07/29 04:05:59;;;;;;;;;;;;;;;;;;5077253;28;19972;-79
2022/07/29 04:08:25;;;;;;;;;;;;;;;;;;5075521;28;20024;-78
2022/07/29 04:10:52;;;;;;;;;;;;;;;;;;5074684;28;20034;-79
2022/07/29 04:13:19;;;;;;;;;;;;;;;;;;5076350;28;19931;-79
2022/07/29 04:15:46;;;;;;;;;;;;;;;;;;5078769;28;20430;-79
2022/07/29 04:18:12;;;;;;;;;;;;;;;;;;5076983;28;20443;-77
2022/07/29 04:20:39;;;;;;;;;;;;;;;;;;5086227;28;19975;-79
2022/07/29 04:23:06;;;;;;;;;;;;;;;;;;5087330;28;19924;-79
2022/07/29 04:25:33;;;;;;;;;;;;;;;;;;5081929;28;20316;-77
2022/07/29 04:28:02;;;;;;;;;;;;;;;;;;5074611;28;20474;-78
2022/07/29 04:30:29;;;;;;;;;;;;;;;;;;5076992;28;20006;-79
2022/07/29 04:32:55;;;;;;;;;;;;;;;;;;5075225;28;20012;-78
2022/07/29 04:35:22;;;;;;;;;;;;;;;;;;5074262;28;19968;-78
2022/07/29 04:37:48;;;;;;;;;;;;;;;;;;5078510;28;19924;-77
2022/07/29 04:40:16;;;;;;;;;;;;;;;;;;5075228;28;20015;-77
2022/07/29 04:42:43;;;;;;;;;;;;;;;;;;5075211;28;20359;-78
2022/07/29 04:45:09;;;;;;;;;;;;;;;;;;5075729;28;19968;-78
2022/07/29 04:47:36;;;;;;;;;;;;;;;;;;5076135;28;19954;-78
2022/07/29 04:50:02;;;;;;;;;;;;;;;;;;5076103;28;19964;-79
2022/07/29 04:52:29;;;;;;;;;;;;;;;;;;5075814;28;20003;-79
2022/07/29 04:54:55;;;;;;;;;;;;;;;;;;5077025;28;20023;-79
2022/07/29 04:57:23;;;;;;;;;;;;;;;;;;5077532;28;19967;-78
2022/07/29 04:59:49;;;;;;;;;;;;;;;;;;5076450;28;19924;-79
2022/07/29 05:02:16;;;;;;;;;;;;;;;;;;5078204;28;19967;-81
2022/07/29 05:04:42;;;;;;;;;;;;;;;;;;5081026;28;20388;-79
2022/07/29 05:07:09;;;;;;;;;;;;;;;;;;5076508;28;20014;-79
2022/07/29 05:09:35;;;;;;;;;;;;;;;;;;5076292;28;19924;-78
2022/07/29 05:12:02;;;;;;;;;;;;;;;;;;5076536;28;19992;-79
2022/07/29 05:14:30;;;;;;;;;;;;;;;;;;5077572;28;19964;-79
2022/07/29 05:16:57;;;;;;;;;;;;;;;;;;5076044;28;20018;-79
2022/07/29 05:19:23;;;;;;;;;;;;;;;;;;5075769;28;20035;-80
2022/07/29 05:21:50;;;;;;;;;;;;;;;;;;5075822;28;19928;-80
2022/07/29 05:24:16;;;;;;;;;;;;;;;;;;5074536;28;19967;-79
2022/07/29 05:26:43;;;;;;;;;;;;;;;;;;5075395;28;19929;-78
2022/07/29 05:29:10;;;;;;;;;;;;;;;;;;5076647;28;19924;-80
2022/07/29 05:31:38;;;;;;;;;;;;;;;;;;5078603;28;19924;-79
2022/07/29 05:34:18;;;;;;;;;;;;;;;;;;5077928;28;20481;-79
2022/07/29 05:36:45;;;;;;;;;;;;;;;;;;5077327;28;19924;-78
2022/07/29 05:39:12;;;;;;;;;;;;;;;;;;5073856;28;20260;-78
2022/07/29 05:41:39;;;;;;;;;;;;;;;;;;5076032;28;20011;-80
2022/07/29 05:44:06;;;;;;;;;;;;;;;;;;5074657;28;20391;-79
2022/07/29 05:46:35;;;;;;;;;;;;;;;;;;5074874;28;19944;-78
2022/07/29 05:49:04;;;;;;;;;;;;;;;;;;5072947;28;20284;-79
2022/07/29 05:51:30;;;;;;;;;;;;;;;;;;5074612;28;19964;-79
2022/07/29 05:53:57;;;;;;;;;;;;;;;;;;5075008;28;19931;-77
2022/07/29 05:56:24;;;;;;;;;;;;;;;;;;5073450;28;19932;-77
2022/07/29 05:58:50;;;;;;;;;;;;;;;;;;5075845;28;20020;-78
2022/07/29 06:01:17;;;;;;;;;;;;;;;;;;5074956;28;20244;-78
2022/07/29 06:03:43;;;;;;;;;;;;;;;;;;5074159;28;20016;-79
2022/07/29 06:06:11;;;;;;;;;;;;;;;;;;5074824;28;19978;-78
2022/07/29 06:08:38;;;;;;;;;;;;;;;;;;5076655;28;19925;-77
2022/07/29 06:11:12;;;;;;;;;;;;;;;;;;5080856;28;19950;-82
2022/07/29 06:13:38;;;;;;;;;;;;;;;;;;5076703;28;19924;-78
2022/07/29 06:16:05;;;;;;;;;;;;;;;;;;5075744;28;19968;-78
2022/07/29 06:18:32;;;;;;;;;;;;;;;;;;5075778;28;19971;-77
2022/07/29 06:21:19;;;;;;;;;;;;;;;;;;5077152;28;19936;-79
2022/07/29 06:23:47;;;;;;;;;;;;;;;;;;5076415;28;19955;-76
2022/07/29 06:26:14;;;;;;;;;;;;;;;;;;5081171;28;19928;-79
2022/07/29 06:28:40;;;;;;;;;;;;;;;;;;5076448;28;19990;-78
2022/07/29 06:31:07;;;;;;;;;;;;;;;;;;5075504;28;20373;-77
2022/07/29 06:33:33;;;;;;;;;;;;;;;;;;5077223;28;20168;-77
2022/07/29 06:36:00;;;;;;;;;;;;;;;;;;5074802;28;20383;-77
2022/07/29 06:38:27;;;;;;;;;;;;;;;;;;5076283;28;20311;-78
2022/07/29 06:41:05;;;;;;;;;;;;;;;;;;5076644;28;20045;-79
2022/07/29 06:43:33;;;;;;;;;;;;;;;;;;5077180;28;19924;-78
2022/07/29 06:46:01;;;;;;;;;;;;;;;;;;5078786;28;19925;-78
2022/07/29 06:48:33;;;;;;;;;;;;;;;;;;5080100;28;19999;-84
2022/07/29 06:51:00;;;;;;;;;;;;;;;;;;5087919;28;19925;-77
2022/07/29 06:53:26;;;;;;;;;;;;;;;;;;5081663;28;19949;-80
2022/07/29 06:55:53;;;;;;;;;;;;;;;;;;5082151;28;19924;-79
2022/07/29 06:58:21;;;;;;;;;;;;;;;;;;5083309;28;19986;-79
2022/07/29 07:00:47;;;;;;;;;;;;;;;;;;5095774;28;20512;-80
2022/07/29 07:03:14;;;;;;;;;;;;;;;;;;5099691;28;19924;-79
2022/07/29 07:05:40;;;;;;;;;;;;;;;;;;5098784;28;19971;-80
2022/07/29 07:08:07;;;;;;;;;;;;;;;;;;5100759;28;19924;-78
2022/07/29 07:10:34;;;;;;;;;;;;;;;;;;5101959;28;19991;-78
2022/07/29 07:13:01;;;;;;;;;;;;;;;;;;5109991;28;19931;-79
2022/07/29 07:15:29;;;;;;;;;;;;;;;;;;5113248;28;19924;-79
2022/07/29 07:17:56;;;;;;;;;;;;;;;;;;5111420;28;19973;-78
2022/07/29 07:20:23;;;;;;;;;;;;;;;;;;5113051;28;19931;-79
2022/07/29 07:22:49;;;;;;;;;;;;;;;;;;5106839;28;20493;-78
2022/07/29 07:25:17;;;;;;;;;;;;;;;;;;5103328;28;19983;-78
2022/07/29 07:27:43;;;;;;;;;;;;;;;;;;5099314;28;19924;-78
2022/07/29 07:30:10;;;;;;;;;;;;;;;;;;5102202;28;19946;-79
2022/07/29 07:32:38;;;;;;;;;;;;;;;;;;5098769;28;19923;-79
2022/07/29 07:35:05;;;;;;;;;;;;;;;;;;5099595;28;20481;-77
2022/07/29 07:37:31;;;;;;;;;;;;;;;;;;5097686;28;19971;-80
2022/07/29 07:39:58;;;;;;;;;;;;;;;;;;5107287;28;19963;-79
2022/07/29 07:42:25;;;;;;;;;;;;;;;;;;5101779;28;19928;-79
2022/07/29 07:44:51;;;;;;;;;;;;;;;;;;5104691;28;19932;-78
2022/07/29 07:47:19;;;;;;;;;;;;;;;;;;5102009;28;19928;-78
2022/07/29 07:49:47;;;;;;;;;;;;;;;;;;5102531;28;19969;-79
2022/07/29 07:52:14;;;;;;;;;;;;;;;;;;5105225;28;19924;-79
2022/07/29 07:54:40;;;;;;;;;;;;;;;;;;5113509;28;19932;-79
2022/07/29 07:57:07;;;;;;;;;;;;;;;;;;5117519;28;19931;-79
2022/07/29 07:59:33;;;;;;;;;;;;;;;;;;5118962;28;19946;-77
2022/07/29 08:02:00;;;;;;;;;;;;;;;;;;5119241;28;19924;-77
2022/07/29 08:04:27;;;;;;;;;;;;;;;;;;5118966;28;19930;-79
2022/07/29 08:06:55;;;;;;;;;;;;;;;;;;5102047;28;19924;-80
2022/07/29 08:09:21;;;;;;;;;;;;;;;;;;5098531;28;20422;-78
2022/07/29 08:11:48;;;;;;;;;;;;;;;;;;5098332;28;19951;-78
2022/07/29 08:14:14;;;;;;;;;;;;;;;;;;5101117;28;19928;-78
2022/07/29 08:16:41;;;;;;;;;;;;;;;;;;5101409;28;20019;-78
2022/07/29 08:19:07;;;;;;;;;;;;;;;;;;5095433;28;19971;-79
2022/07/29 08:21:34;;;;;;;;;;;;;;;;;;5100923;28;19924;-79
2022/07/29 08:26:43;;;;;;;;;;;;;;;;;;5104533;28;19975;-79
2022/07/29 08:29:09;;;;;;;;;;;;;;;;;;5099302;28;19935;-78
2022/07/29 08:31:36;;;;;;;;;;;;;;;;;;5103235;28;19928;-78
2022/07/29 08:34:03;;;;;;;;;;;;;;;;;;5101797;28;19928;-79
2022/07/29 08:36:29;;;;;;;;;;;;;;;;;;5107698;28;19956;-79
2022/07/29 08:38:56;;;;;;;;;;;;;;;;;;5103622;28;19928;-79
2022/07/29 08:41:24;;;;;;;;;;;;;;;;;;5104916;28;19935;-78
2022/07/29 08:43:50;;;;;;;;;;;;;;;;;;5103728;28;19924;-77
2022/07/29 08:46:17;;;;;;;;;;;;;;;;;;5103033;28;20110;-78
2022/07/29 08:48:44;;;;;;;;;;;;;;;;;;5104605;28;19930;-79
2022/07/29 08:51:14;;;;;;;;;;;;;;;;;;5102521;28;20394;-78
2022/07/29 08:53:42;;;;;;;;;;;;;;;;;;5103032;28;19924;-81
2022/07/29 08:56:12;;;;;;;;;;;;;;;;;;5102108;28;19974;-79
2022/07/29 08:58:40;;;;;;;;;;;;;;;;;;5100511;28;19924;-79
2022/07/29 09:01:07;;;;;;;;;;;;;;;;;;5100967;28;19928;-78
2022/07/29 09:03:35;;;;;;;;;;;;;;;;;;5099179;28;19967;-78
2022/07/29 09:06:01;;;;;;;;;;;;;;;;;;5098825;28;19930;-80
2022/07/29 09:08:28;;;;;;;;;;;;;;;;;;5099615;28;19930;-79
2022/07/29 09:10:55;;;;;;;;;;;;;;;;;;5101122;28;20239;-79
2022/07/29 09:13:22;;;;;;;;;;;;;;;;;;5100681;28;19974;-78
2022/07/29 09:15:49;;;;;;;;;;;;;;;;;;5098814;28;19982;-79
2022/07/29 09:18:33;;;;;;;;;;;;;;;;;;5099333;28;19924;-79
2022/07/29 09:24:00;;;;;;;;;;;;;;;;;;5102211;28;19950;-78
2022/07/29 09:26:28;;;;;;;;;;;;;;;;;;5097819;28;20047;-79
2022/07/29 09:28:55;;;;;;;;;;;;;;;;;;5096804;28;19924;-78
2022/07/29 09:31:30;;;;;;;;;;;;;;;;;;5096462;28;19971;-79
2022/07/29 09:33:58;;;;;;;;;;;;;;;;;;5095601;28;20286;-78
2022/07/29 09:36:25;;;;;;;;;;;;;;;;;;5094588;28;19967;-78
2022/07/29 09:38:57;;;;;;;;;;;;;;;;;;5097805;28;19924;-80
2022/07/29 09:41:24;;;;;;;;;;;;;;;;;;5102432;28;19928;-78
2022/07/29 09:43:54;;;;;;;;;;;;;;;;;;5111269;28;19973;-79
2022/07/29 09:46:23;;;;;;;;;;;;;;;;;;5118628;28;19975;-79
2022/07/29 09:49:04;;;;;;;;;;;;;;;;;;5126168;28;19949;-79
2022/07/29 09:51:32;;;;;;;;;;;;;;;;;;5121544;28;19923;-77
2022/07/29 09:54:00;;;;;;;;;;;;;;;;;;5115589;28;19923;-77
2022/07/29 09:56:39;;;;;;;;;;;;;;;;;;5116622;28;19946;-78
2022/07/29 09:59:06;;;;;;;;;;;;;;;;;;5118269;28;19924;-79
2022/07/29 10:01:32;;;;;;;;;;;;;;;;;;5119958;28;19924;-80
2022/07/29 10:03:59;;;;;;;;;;;;;;;;;;5116754;28;19924;-78
2022/07/29 10:06:25;;;;;;;;;;;;;;;;;;5117402;28;19955;-80
2022/07/29 10:08:54;;;;;;;;;;;;;;;;;;5101721;28;19924;-78
2022/07/29 10:11:20;;;;;;;;;;;;;;;;;;5080990;28;19924;-77
2022/07/29 10:13:48;;;;;;;;;;;;;;;;;;5081077;28;19935;-77
2022/07/29 10:16:15;;;;;;;;;;;;;;;;;;5093403;28;19924;-77
2022/07/29 10:18:43;;;;;;;;;;;;;;;;;;5077673;28;20379;-77
2022/07/29 10:21:10;;;;;;;;;;;;;;;;;;5076088;28;19924;-81
2022/07/29 10:23:37;;;;;;;;;;;;;;;;;;5076719;28;19935;-80
2022/07/29 10:26:05;;;;;;;;;;;;;;;;;;5076757;28;19968;-84
2022/07/29 10:28:31;;;;;;;;;;;;;;;;;;5077738;28;19934;-79
2022/07/29 10:31:01;;;;;;;;;;;;;;;;;;5088787;28;19924;-81
2022/07/29 10:33:40;;;;;;;;;;;;;;;;;;5087365;28;19967;-88
2022/07/29 10:36:11;;;;;;;;;;;;;;;;;;5096574;28;19928;-80
2022/07/29 10:38:43;;;;;;;;;;;;;;;;;;5083164;28;19987;-79
2022/07/29 10:41:27;;;;;;;;;;;;;;;;;;5076871;28;19978;-78
2022/07/29 10:43:55;;;;;;;;;;;;;;;;;;5072654;28;19925;-81
2022/07/29 10:46:22;;;;;;;;;;;;;;;;;;5072230;28;20584;-78
2022/07/29 10:49:14;;;;;;;;;;;;;;;;;;5073016;28;19964;-77
2022/07/29 10:51:54;;;;;;;;;;;;;;;;;;5073613;28;19925;-78
2022/07/29 10:54:37;;;;;;;;;;;;;;;;;;5072068;28;19933;-78
2022/07/29 11:03:40;;;;;;;;;;;;;;;;;;5095362;28;19923;-79
2022/07/29 11:06:08;;;;;;;;;;;;;;;;;;5091967;28;19928;-78
2022/07/29 11:08:35;;;;;;;;;;;;;;;;;;5096310;28;20040;-78
2022/07/29 11:11:16;;;;;;;;;;;;;;;;;;5085224;28;19931;-77
2022/07/29 11:13:50;;;;;;;;;;;;;;;;;;5067355;28;19971;-77
2022/07/29 11:16:18;;;;;;;;;;;;;;;;;;5082644;28;19925;-77
2022/07/29 11:19:03;;;;;;;;;;;;;;;;;;5088871;28;19990;-78
2022/07/29 11:21:37;;;;;;;;;;;;;;;;;;5091833;28;20146;-78
2022/07/29 11:24:12;;;;;;;;;;;;;;;;;;5085146;28;19976;-77
2022/07/29 11:26:38;;;;;;;;;;;;;;;;;;5075721;28;19931;-78
2022/07/29 11:29:07;;;;;;;;;;;;;;;;;;5093648;28;19928;-77
2022/07/29 11:31:38;;;;;;;;;;;;;;;;;;5094569;28;20018;-78
2022/07/29 11:34:17;;;;;;;;;;;;;;;;;;5098311;28;19931;-78
2022/07/29 11:36:58;;;;;;;;;;;;;;;;;;5096846;28;19951;-79
2022/07/29 11:39:29;;;;;;;;;;;;;;;;;;5094920;28;19931;-79
2022/07/29 11:42:14;;;;;;;;;;;;;;;;;;5092700;28;19924;-78
2022/07/29 11:51:01;;;;;;;;;;;;;;;;;;5094221;28;19964;-79
2022/07/29 11:56:32;;;;;;;;;;;;;;;;;;5076672;28;20187;-78
2022/07/29 12:01:29;;;;;;;;;;;;;;;;;;5098402;28;19992;-81
2022/07/29 12:04:03;;;;;;;;;;;;;;;;;;5078620;28;19924;-83
2022/07/29 12:06:29;;;;;;;;;;;;;;;;;;5082477;28;19984;-82
2022/07/29 12:08:57;;;;;;;;;;;;;;;;;;5079829;28;20367;-81
2022/07/29 12:11:24;;;;;;;;;;;;;;;;;;5059768;28;19938;-81
2022/07/29 12:13:52;;;;;;;;;;;;;;;;;;5060503;28;19980;-83
2022/07/29 12:16:18;;;;;;;;;;;;;;;;;;5058748;28;19935;-82
2022/07/29 12:18:55;;;;;;;;;;;;;;;;;;5059260;28;19972;-81
2022/07/29 12:21:21;;;;;;;;;;;;;;;;;;5059782;28;20023;-82
2022/07/29 12:26:16;;;;;;;;;;;;;;;;;;5141598;22;20326;-64
2022/07/29 12:28:43;;;;;;;;;;;;;;;;;;5112934;28;19974;-66
2022/07/29 12:31:15;;;;;;;;;;;;;;;;;;5112662;28;20369;-64
2022/07/29 12:33:42;;;;;;;;;;;;;;;;;;5112731;28;20391;-64
2022/07/29 12:36:08;;;;;;;;;;;;;;;;;;5112255;28;19971;-64
2022/07/29 12:38:35;;;;;;;;;;;;;;;;;;5112609;28;19924;-62
2022/07/29 12:41:02;;;;;;;;;;;;;;;;;;5112447;28;19976;-64
2022/07/29 12:43:28;;;;;;;;;;;;;;;;;;5112548;28;19924;-65
2022/07/29 12:45:56;;;;;;;;;;;;;;;;;;5112806;28;19977;-62
2022/07/29 12:48:35;;;;;;;;;;;;;;;;;;5112749;28;19923;-64
2022/07/29 12:51:03;;;;;;;;;;;;;;;;;;5112491;28;19928;-63
2022/07/29 12:53:29;;;;;;;;;;;;;;;;;;5106406;28;19931;-64
2022/07/29 12:55:59;;;;;;;;;;;;;;;;;;5092073;28;19924;-63
2022/07/29 12:58:33;;;;;;;;;;;;;;;;;;5092035;28;19946;-62
2022/07/29 13:01:04;;;;;;;;;;;;;;;;;;5091172;28;19928;-64
2022/07/29 13:03:43;;;;;;;;;;;;;;;;;;5091428;28;19970;-64
2022/07/29 13:06:24;;;;;;;;;;;;;;;;;;5092184;28;20001;-64
2022/07/29 13:08:59;;;;;;;;;;;;;;;;;;5091550;28;20350;-64
2022/07/29 13:11:29;;;;;;;;;;;;;;;;;;5091834;28;19924;-64
2022/07/29 13:13:56;;;;;;;;;;;;;;;;;;5091746;28;19928;-65
2022/07/29 13:16:22;;;;;;;;;;;;;;;;;;5091727;28;19985;-63
2022/07/29 13:19:03;;;;;;;;;;;;;;;;;;5091730;28;20492;-64
2022/07/29 13:21:30;;;;;;;;;;;;;;;;;;5091329;28;19973;-68
2022/07/29 13:23:57;;;;;;;;;;;;;;;;;;5091287;28;19924;-65
2022/07/29 13:26:24;;;;;;;;;;;;;;;;;;5091080;28;19951;-64
2022/07/29 13:28:50;;;;;;;;;;;;;;;;;;5090998;28;19924;-64
2022/07/29 13:31:17;;;;;;;;;;;;;;;;;;5090840;28;19924;-63
2022/07/29 13:33:43;;;;;;;;;;;;;;;;;;5090764;28;19993;-64
2022/07/29 13:36:12;;;;;;;;;;;;;;;;;;5091688;28;19928;-64
2022/07/29 13:38:38;;;;;;;;;;;;;;;;;;5091123;28;19924;-63
2022/07/29 13:41:05;;;;;;;;;;;;;;;;;;5091297;28;19930;-64
2022/07/29 13:43:31;;;;;;;;;;;;;;;;;;5090741;28;20339;-65
2022/07/29 13:45:58;;;;;;;;;;;;;;;;;;5091551;28;19973;-64
2022/07/29 13:48:25;;;;;;;;;;;;;;;;;;5091155;28;19924;-65
2022/07/29 13:50:51;;;;;;;;;;;;;;;;;;5090782;28;19931;-65
2022/07/29 13:53:19;;;;;;;;;;;;;;;;;;5090666;28;19924;-63
2022/07/29 13:55:46;;;;;;;;;;;;;;;;;;5090745;28;19928;-64
2022/07/29 13:58:12;;;;;;;;;;;;;;;;;;5091590;28;19924;-64
2022/07/29 14:00:39;;;;;;;;;;;;;;;;;;5082234;28;19925;-64
2022/07/29 14:03:06;;;;;;;;;;;;;;;;;;5071039;28;19924;-62
2022/07/29 14:05:32;;;;;;;;;;;;;;;;;;5071491;28;19971;-64
2022/07/29 14:07:59;;;;;;;;;;;;;;;;;;5070712;28;19939;-63
2022/07/29 14:10:27;;;;;;;;;;;;;;;;;;5070470;28;19924;-63
2022/07/29 14:12:54;;;;;;;;;;;;;;;;;;5071141;28;19925;-63
2022/07/29 14:15:20;;;;;;;;;;;;;;;;;;5070515;28;19951;-62
2022/07/29 14:17:47;;;;;;;;;;;;;;;;;;5070422;28;19929;-64
2022/07/29 14:20:15;;;;;;;;;;;;;;;;;;5069919;28;19928;-64
2022/07/29 14:22:41;;;;;;;;;;;;;;;;;;5070416;28;19998;-64
2022/07/29 14:25:09;;;;;;;;;;;;;;;;;;5070542;28;19925;-64
2022/07/29 14:27:39;;;;;;;;;;;;;;;;;;5070193;28;19925;-63
2022/07/29 14:30:06;;;;;;;;;;;;;;;;;;5080961;28;19925;-64
2022/07/29 14:32:32;;;;;;;;;;;;;;;;;;5090243;28;19924;-65
2022/07/29 14:34:59;;;;;;;;;;;;;;;;;;5090184;28;19924;-62
2022/07/29 14:37:25;;;;;;;;;;;;;;;;;;5089708;28;19924;-64
2022/07/29 14:39:52;;;;;;;;;;;;;;;;;;5089952;28;19924;-64
2022/07/29 14:42:18;;;;;;;;;;;;;;;;;;5100841;28;19935;-64
2022/07/29 14:44:47;;;;;;;;;;;;;;;;;;5112011;28;20227;-65
2022/07/29 14:47:14;;;;;;;;;;;;;;;;;;5113512;28;19997;-65
2022/07/29 14:49:40;;;;;;;;;;;;;;;;;;5114029;28;19960;-65
2022/07/29 14:52:07;;;;;;;;;;;;;;;;;;5114509;28;19930;-62
2022/07/29 14:54:33;;;;;;;;;;;;;;;;;;5114590;28;19977;-64
2022/07/29 14:57:00;;;;;;;;;;;;;;;;;;5114306;28;19924;-66
2022/07/29 14:59:27;;;;;;;;;;;;;;;;;;5114296;28;20407;-63
2022/07/29 15:01:55;;;;;;;;;;;;;;;;;;5094562;28;19932;-64
2022/07/29 15:04:21;;;;;;;;;;;;;;;;;;5094190;28;19936;-64
2022/07/29 15:06:48;;;;;;;;;;;;;;;;;;5093710;28;19935;-64
2022/07/29 15:09:15;;;;;;;;;;;;;;;;;;5093074;28;19931;-64
2022/07/29 15:11:41;;;;;;;;;;;;;;;;;;5093378;28;19928;-66
2022/07/29 15:14:08;;;;;;;;;;;;;;;;;;5093447;28;19928;-64
2022/07/29 15:16:36;;;;;;;;;;;;;;;;;;5093814;28;19924;-64
2022/07/29 15:19:05;;;;;;;;;;;;;;;;;;5093449;28;19928;-67
2022/07/29 15:21:32;;;;;;;;;;;;;;;;;;5093660;28;19931;-65
2022/07/29 15:23:58;;;;;;;;;;;;;;;;;;5093219;28;19931;-63
2022/07/29 15:26:25;;;;;;;;;;;;;;;;;;5093193;28;19931;-65
2022/07/29 15:28:51;;;;;;;;;;;;;;;;;;5093458;28;19931;-63
2022/07/29 15:31:18;;;;;;;;;;;;;;;;;;5093392;28;20014;-65
2022/07/29 15:33:45;;;;;;;;;;;;;;;;;;5093538;28;20385;-64
2022/07/29 15:36:13;;;;;;;;;;;;;;;;;;5093626;28;19981;-65
2022/07/29 15:38:40;;;;;;;;;;;;;;;;;;5093306;28;20018;-65
2022/07/29 15:41:06;;;;;;;;;;;;;;;;;;5093524;28;20235;-65
2022/07/29 15:43:34;;;;;;;;;;;;;;;;;;5093574;28;19977;-64
2022/07/29 15:48:45;;;;;;;;;;;;;;;;;;5094526;28;19931;-64
2022/07/29 15:51:13;;;;;;;;;;;;;;;;;;5093197;28;19931;-64
2022/07/29 15:53:40;;;;;;;;;;;;;;;;;;5094667;28;19924;-64
2022/07/29 15:56:07;;;;;;;;;;;;;;;;;;5094154;28;19924;-64
2022/07/29 15:58:33;;;;;;;;;;;;;;;;;;5094277;28;19924;-63
2022/07/29 16:01:00;;;;;;;;;;;;;;;;;;5094533;28;19948;-63
2022/07/29 16:03:27;;;;;;;;;;;;;;;;;;5094947;28;19924;-65
2022/07/29 16:05:54;;;;;;;;;;;;;;;;;;5094436;28;20019;-63
2022/07/29 16:08:21;;;;;;;;;;;;;;;;;;5093877;28;19931;-62
2022/07/29 16:10:48;;;;;;;;;;;;;;;;;;5093231;28;19923;-62
2022/07/29 16:13:15;;;;;;;;;;;;;;;;;;5093743;28;19931;-64
2022/07/29 16:15:41;;;;;;;;;;;;;;;;;;5094003;28;20054;-63
2022/07/29 16:18:09;;;;;;;;;;;;;;;;;;5093650;28;19965;-65
2022/07/29 16:20:35;;;;;;;;;;;;;;;;;;5093559;28;19978;-63
2022/07/29 16:23:02;;;;;;;;;;;;;;;;;;5093742;28;19931;-63
2022/07/29 16:25:30;;;;;;;;;;;;;;;;;;5092895;28;19935;-64
2022/07/29 16:27:57;;;;;;;;;;;;;;;;;;5093602;28;20019;-66
2022/07/29 16:30:23;;;;;;;;;;;;;;;;;;5092582;28;19935;-64
2022/07/29 16:32:50;;;;;;;;;;;;;;;;;;5093702;28;19967;-63
2022/07/29 16:35:16;;;;;;;;;;;;;;;;;;5092774;28;19924;-63
2022/07/29 16:37:43;;;;;;;;;;;;;;;;;;5092633;28;19924;-63
2022/07/29 16:40:13;;;;;;;;;;;;;;;;;;5092329;28;19928;-65
2022/07/29 16:42:42;;;;;;;;;;;;;;;;;;5089663;28;19932;-64
2022/07/29 16:45:09;;;;;;;;;;;;;;;;;;5075426;28;19924;-64
2022/07/29 16:47:36;;;;;;;;;;;;;;;;;;5099802;28;19931;-66
2022/07/29 16:50:03;;;;;;;;;;;;;;;;;;5069813;28;20034;-69
2022/07/29 16:52:29;;;;;;;;;;;;;;;;;;5071721;28;19935;-65
2022/07/29 16:54:56;;;;;;;;;;;;;;;;;;5072184;28;19924;-65
2022/07/29 16:57:22;;;;;;;;;;;;;;;;;;5072648;28;19924;-64
2022/07/29 16:59:53;;;;;;;;;;;;;;;;;;5074337;28;19924;-66
2022/07/29 17:02:20;;;;;;;;;;;;;;;;;;5092776;28;19924;-64
2022/07/29 17:04:46;;;;;;;;;;;;;;;;;;5091960;28;19924;-67
2022/07/29 17:07:14;;;;;;;;;;;;;;;;;;5090803;28;20003;-67
2022/07/29 17:09:41;;;;;;;;;;;;;;;;;;5091848;28;19930;-65
2022/07/29 17:12:08;;;;;;;;;;;;;;;;;;5091775;28;19978;-65
2022/07/29 17:14:34;;;;;;;;;;;;;;;;;;5091847;28;20001;-65
2022/07/29 17:17:02;;;;;;;;;;;;;;;;;;5091510;28;19924;-65
2022/07/29 17:19:29;;;;;;;;;;;;;;;;;;5090973;28;19969;-65
2022/07/29 17:21:56;;;;;;;;;;;;;;;;;;5091421;28;20347;-65